sensor_id;sensor_type;location;lat;lon;timestamp;pressure;altitude;pressure_sealevel;temperature;humidity
69257;BME280;56376;53.356;-1.748;2022-12-24T00:00:32;98118.63;;;4.95;100.00
69257;BME280;56376;53.356;-1.748;2022-12-24T00:02:58;98109.06;;;4.97;100.00
69257;BME280;56376;53.356;-1.748;2022-12-24T00:05:23;98104.72;;;4.98;100.00
69257;BME280;56376;53.356;-1.748;2022-12-24T00:07:49;98114.63;;;5.10;100.00
69257;BME280;56376;53.356;-1.748;2022-12-24T00:10:14;98110.09;;;5.17;100.00
69257;BME280;56376;53.356;-1.748;2022-12-24T00:12:40;98118.53;;;5.22;100.00
69257;BME280;56376;53.356;-1.748;2022-12-24T00:15:06;98121.72;;;5.29;100.00
69257;BME280;56376;53.356;-1.748;2022-12-24T00:17:32;98129.28;;;5.35;100.00
69257;BME280;56376;53.356;-1.748;2022-12-24T00:19:58;98126.56;;;5.38;100.00
69257;BME280;56376;53.356;-1.748;2022-12-24T00:22:23;98138.59;;;5.39;100.00
69257;BME280;56376;53.356;-1.748;2022-12-24T00:24:49;98143.69;;;5.42;100.00
69257;BME280;56376;53.356;-1.748;2022-12-24T00:27:14;98144.56;;;5.41;100.00
69257;BME280;56376;53.356;-1.748;2022-12-24T00:29:39;98144.44;;;5.44;100.00
69257;BME280;56376;53.356;-1.748;2022-12-24T00:32:05;98149.53;;;5.47;100.00
69257;BME280;56376;53.356;-1.748;2022-12-24T00:34:37;98148.50;;;5.51;100.00
69257;BME280;56376;53.356;-1.748;2022-12-24T00:37:02;98149.25;;;5.55;100.00
69257;BME280;56376;53.356;-1.748;2022-12-24T00:39:28;98156.03;;;5.57;100.00
69257;BME280;56376;53.356;-1.748;2022-12-24T00:41:53;98163.69;;;5.60;100.00
69257;BME280;56376;53.356;-1.748;2022-12-24T00:44:19;98167.91;;;5.63;100.00
69257;BME280;56376;53.356;-1.748;2022-12-24T00:46:44;98160.97;;;5.63;100.00
69257;BME280;56376;53.356;-1.748;2022-12-24T00:49:11;98164.38;;;5.66;100.00
69257;BME280;56376;53.356;-1.748;2022-12-24T00:51:37;98157.44;;;5.66;100.00
69257;BME280;56376;53.356;-1.748;2022-12-24T00:54:03;98168.47;;;5.71;100.00
69257;BME280;56376;53.356;-1.748;2022-12-24T00:56:28;98162.31;;;5.74;100.00
69257;BME280;56376;53.356;-1.748;2022-12-24T00:58:55;98159.69;;;5.75;100.00
69257;BME280;56376;53.356;-1.748;2022-12-24T01:01:21;98170.63;;;5.82;100.00
69257;BME280;56376;53.356;-1.748;2022-12-24T01:03:46;98166.31;;;5.82;100.00
69257;BME280;56376;53.356;-1.748;2022-12-24T01:06:20;98161.00;;;5.85;100.00
69257;BME280;56376;53.356;-1.748;2022-12-24T01:08:48;98160.09;;;5.86;100.00
69257;BME280;56376;53.356;-1.748;2022-12-24T01:11:14;98140.16;;;5.89;100.00
69257;BME280;56376;53.356;-1.748;2022-12-24T01:13:39;98139.25;;;5.90;100.00
69257;BME280;56376;53.356;-1.748;2022-12-24T01:16:16;98157.41;;;5.90;100.00
69257;BME280;56376;53.356;-1.748;2022-12-24T01:18:42;98149.69;;;5.88;100.00
69257;BME280;56376;53.356;-1.748;2022-12-24T01:21:07;98145.47;;;5.85;100.00
69257;BME280;56376;53.356;-1.748;2022-12-24T01:23:33;98157.56;;;5.85;100.00
69257;BME280;56376;53.356;-1.748;2022-12-24T01:25:59;98154.19;;;5.83;100.00
69257;BME280;56376;53.356;-1.748;2022-12-24T01:28:25;98174.00;;;5.84;100.00
69257;BME280;56376;53.356;-1.748;2022-12-24T01:30:51;98174.00;;;5.84;100.00
69257;BME280;56376;53.356;-1.748;2022-12-24T01:33:16;98175.59;;;5.88;100.00
69257;BME280;56376;53.356;-1.748;2022-12-24T01:35:50;98172.88;;;5.91;100.00
69257;BME280;56376;53.356;-1.748;2022-12-24T01:38:28;98175.47;;;5.91;100.00
69257;BME280;56376;53.356;-1.748;2022-12-24T01:40:58;98179.81;;;5.91;100.00
69257;BME280;56376;53.356;-1.748;2022-12-24T01:43:42;98175.47;;;5.91;100.00
69257;BME280;56376;53.356;-1.748;2022-12-24T01:46:17;98187.59;;;5.91;100.00
69257;BME280;56376;53.356;-1.748;2022-12-24T01:49:03;98191.00;;;5.91;100.00
69257;BME280;56376;53.356;-1.748;2022-12-24T01:51:39;98195.38;;;5.91;100.00
69257;BME280;56376;53.356;-1.748;2022-12-24T01:54:10;98186.75;;;5.90;100.00
69257;BME280;56376;53.356;-1.748;2022-12-24T01:56:44;98183.31;;;5.90;100.00
69257;BME280;56376;53.356;-1.748;2022-12-24T01:59:12;98177.28;;;5.89;100.00
69257;BME280;56376;53.356;-1.748;2022-12-24T02:01:39;98179.75;;;5.92;100.00
69257;BME280;56376;53.356;-1.748;2022-12-24T02:04:12;98177.06;;;5.95;100.00
69257;BME280;56376;53.356;-1.748;2022-12-24T02:06:41;98187.44;;;5.95;100.00
69257;BME280;56376;53.356;-1.748;2022-12-24T02:09:07;98178.84;;;5.93;100.00
69257;BME280;56376;53.356;-1.748;2022-12-24T02:11:33;98190.84;;;5.97;100.00
69257;BME280;56376;53.356;-1.748;2022-12-24T02:14:01;98192.50;;;5.98;100.00
69257;BME280;56376;53.356;-1.748;2022-12-24T02:38:02;98220.38;;;6.15;100.00
69257;BME280;56376;53.356;-1.748;2022-12-24T02:40:52;98213.44;;;6.16;100.00
69257;BME280;56376;53.356;-1.748;2022-12-24T02:43:23;98225.44;;;6.18;100.00
69257;BME280;56376;53.356;-1.748;2022-12-24T02:45:54;98212.47;;;6.18;100.00
69257;BME280;56376;53.356;-1.748;2022-12-24T02:48:21;98215.91;;;6.19;100.00
69257;BME280;56376;53.356;-1.748;2022-12-24T02:50:56;98231.31;;;6.22;100.00
69257;BME280;56376;53.356;-1.748;2022-12-24T02:53:22;98225.25;;;6.23;100.00
69257;BME280;56376;53.356;-1.748;2022-12-24T03:01:54;98236.47;;;6.23;100.00
69257;BME280;56376;53.356;-1.748;2022-12-24T03:04:31;98239.91;;;6.24;100.00
69257;BME280;56376;53.356;-1.748;2022-12-24T03:12:39;98255.41;;;6.25;100.00
69257;BME280;56376;53.356;-1.748;2022-12-24T03:15:07;98250.03;;;6.30;100.00
69257;BME280;56376;53.356;-1.748;2022-12-24T03:17:36;98253.34;;;6.34;100.00
69257;BME280;56376;53.356;-1.748;2022-12-24T03:20:03;98257.75;;;6.32;100.00
69257;BME280;56376;53.356;-1.748;2022-12-24T03:22:31;98258.50;;;6.35;100.00
69257;BME280;56376;53.356;-1.748;2022-12-24T03:24:58;98255.91;;;6.35;100.00
69257;BME280;56376;53.356;-1.748;2022-12-24T03:27:25;98259.31;;;6.36;100.00
69257;BME280;56376;53.356;-1.748;2022-12-24T03:29:52;98261.00;;;6.37;100.00
69257;BME280;56376;53.356;-1.748;2022-12-24T03:32:31;98270.50;;;6.38;100.00
69257;BME280;56376;53.356;-1.748;2022-12-24T03:34:56;98278.19;;;6.39;100.00
69257;BME280;56376;53.356;-1.748;2022-12-24T03:37:23;98277.34;;;6.39;100.00
69257;BME280;56376;53.356;-1.748;2022-12-24T03:39:49;98272.13;;;6.40;100.00
69257;BME280;56376;53.356;-1.748;2022-12-24T03:42:14;98272.13;;;6.40;100.00
69257;BME280;56376;53.356;-1.748;2022-12-24T03:44:40;98264.34;;;6.40;100.00
69257;BME280;56376;53.356;-1.748;2022-12-24T03:47:05;98278.97;;;6.41;100.00
69257;BME280;56376;53.356;-1.748;2022-12-24T03:49:31;98291.03;;;6.42;100.00
69257;BME280;56376;53.356;-1.748;2022-12-24T03:51:57;98293.63;;;6.42;100.00
69257;BME280;56376;53.356;-1.748;2022-12-24T03:54:22;98289.59;;;6.35;100.00
69257;BME280;56376;53.356;-1.748;2022-12-24T03:56:47;98304.25;;;6.36;100.00
69257;BME280;56376;53.356;-1.748;2022-12-24T03:59:13;98299.06;;;6.36;100.00
69257;BME280;56376;53.356;-1.748;2022-12-24T04:01:38;98315.47;;;6.37;100.00
69257;BME280;56376;53.356;-1.748;2022-12-24T04:04:04;98312.75;;;6.40;100.00
69257;BME280;56376;53.356;-1.748;2022-12-24T04:06:29;98304.13;;;6.39;100.00
69257;BME280;56376;53.356;-1.748;2022-12-24T04:08:55;98308.44;;;6.40;100.00
69257;BME280;56376;53.356;-1.748;2022-12-24T04:11:20;98335.13;;;6.42;100.00
69257;BME280;56376;53.356;-1.748;2022-12-24T04:13:46;98324.00;;;6.40;100.00
69257;BME280;56376;53.356;-1.748;2022-12-24T04:16:14;98309.19;;;6.42;100.00
69257;BME280;56376;53.356;-1.748;2022-12-24T04:18:40;98323.88;;;6.43;100.00
69257;BME280;56376;53.356;-1.748;2022-12-24T04:21:06;98323.88;;;6.43;100.00
69257;BME280;56376;53.356;-1.748;2022-12-24T04:23:34;98325.91;;;6.35;100.00
69257;BME280;56376;53.356;-1.748;2022-12-24T04:26:03;98330.31;;;6.33;100.00
69257;BME280;56376;53.356;-1.748;2022-12-24T04:28:29;98324.38;;;6.29;100.00
69257;BME280;56376;53.356;-1.748;2022-12-24T04:31:03;98326.94;;;6.31;100.00
69257;BME280;56376;53.356;-1.748;2022-12-24T04:33:30;98339.09;;;6.29;100.00
69257;BME280;56376;53.356;-1.748;2022-12-24T04:35:56;98334.97;;;6.25;100.00
69257;BME280;56376;53.356;-1.748;2022-12-24T04:38:22;98338.38;;;6.25;100.00
69257;BME280;56376;53.356;-1.748;2022-12-24T04:40:48;98334.97;;;6.25;100.00
69257;BME280;56376;53.356;-1.748;2022-12-24T04:43:14;98333.38;;;6.21;100.00
69257;BME280;56376;53.356;-1.748;2022-12-24T04:45:39;98323.28;;;6.13;100.00
69257;BME280;56376;53.356;-1.748;2022-12-24T04:48:04;98325.13;;;6.10;100.00
69257;BME280;56376;53.356;-1.748;2022-12-24T04:50:30;98337.34;;;6.07;100.00
69257;BME280;56376;53.356;-1.748;2022-12-24T04:52:55;98335.69;;;6.05;100.00
69257;BME280;56376;53.356;-1.748;2022-12-24T04:55:20;98327.06;;;6.04;100.00
69257;BME280;56376;53.356;-1.748;2022-12-24T04:57:46;98341.03;;;6.00;100.00
69257;BME280;56376;53.356;-1.748;2022-12-24T05:00:11;98349.63;;;6.02;100.00
69257;BME280;56376;53.356;-1.748;2022-12-24T05:02:37;98345.38;;;6.00;100.00
69257;BME280;56376;53.356;-1.748;2022-12-24T05:05:03;98345.44;;;5.98;100.00
69257;BME280;56376;53.356;-1.748;2022-12-24T05:07:28;98342.03;;;5.96;100.00
69257;BME280;56376;53.356;-1.748;2022-12-24T05:09:53;98342.13;;;5.93;100.00
69257;BME280;56376;53.356;-1.748;2022-12-24T05:12:19;98349.13;;;5.91;100.00
69257;BME280;56376;53.356;-1.748;2022-12-24T05:14:44;98353.56;;;5.88;100.00
69257;BME280;56376;53.356;-1.748;2022-12-24T05:17:10;98351.06;;;5.84;100.00
69257;BME280;56376;53.356;-1.748;2022-12-24T05:19:35;98356.25;;;5.84;100.00
69257;BME280;56376;53.356;-1.748;2022-12-24T05:22:00;98363.25;;;5.82;100.00
69257;BME280;56376;53.356;-1.748;2022-12-24T05:24:44;98359.91;;;5.79;100.00
69257;BME280;56376;53.356;-1.748;2022-12-24T05:27:28;98367.56;;;5.82;100.00
69257;BME280;56376;53.356;-1.748;2022-12-24T05:29:54;98368.53;;;5.79;100.00
69257;BME280;56376;53.356;-1.748;2022-12-24T05:32:19;98366.81;;;5.80;100.00
69257;BME280;56376;53.356;-1.748;2022-12-24T05:34:45;98372.16;;;5.75;100.00
69257;BME280;56376;53.356;-1.748;2022-12-24T05:37:10;98373.03;;;5.74;100.00
69257;BME280;56376;53.356;-1.748;2022-12-24T05:39:36;98383.41;;;5.74;100.00
69257;BME280;56376;53.356;-1.748;2022-12-24T05:42:01;98393.88;;;5.71;100.00
69257;BME280;56376;53.356;-1.748;2022-12-24T05:44:26;98387.06;;;5.69;100.00
69257;BME280;56376;53.356;-1.748;2022-12-24T05:46:52;98390.56;;;5.68;100.00
69257;BME280;56376;53.356;-1.748;2022-12-24T05:49:17;98387.97;;;5.68;100.00
69257;BME280;56376;53.356;-1.748;2022-12-24T05:51:43;98388.69;;;5.71;100.00
69257;BME280;56376;53.356;-1.748;2022-12-24T05:54:08;98387.88;;;5.69;100.00
69257;BME280;56376;53.356;-1.748;2022-12-24T05:56:34;98399.19;;;5.67;100.00
69257;BME280;56376;53.356;-1.748;2022-12-24T05:58:59;98394.03;;;5.67;100.00
69257;BME280;56376;53.356;-1.748;2022-12-24T06:01:25;98397.50;;;5.67;100.00
69257;BME280;56376;53.356;-1.748;2022-12-24T06:03:51;98399.31;;;5.63;100.00
69257;BME280;56376;53.356;-1.748;2022-12-24T06:06:23;98408.88;;;5.61;100.00
69257;BME280;56376;53.356;-1.748;2022-12-24T06:08:49;98409.97;;;5.54;100.00
69257;BME280;56376;53.356;-1.748;2022-12-24T06:11:17;98405.72;;;5.53;100.00
69257;BME280;56376;53.356;-1.748;2022-12-24T06:13:43;98406.78;;;5.48;100.00
69257;BME280;56376;53.356;-1.748;2022-12-24T06:16:12;98404.19;;;5.48;100.00
69257;BME280;56376;53.356;-1.748;2022-12-24T06:18:38;98409.50;;;5.43;100.00
69257;BME280;56376;53.356;-1.748;2022-12-24T06:21:04;98416.34;;;5.46;100.00
69257;BME280;56376;53.356;-1.748;2022-12-24T06:23:32;98417.16;;;5.46;100.00
69257;BME280;56376;53.356;-1.748;2022-12-24T06:25:59;98411.16;;;5.46;100.00
69257;BME280;56376;53.356;-1.748;2022-12-24T06:28:26;98409.47;;;5.45;100.00
69257;BME280;56376;53.356;-1.748;2022-12-24T06:30:52;98423.28;;;5.43;100.00
69257;BME280;56376;53.356;-1.748;2022-12-24T06:33:17;98421.63;;;5.42;100.00
69257;BME280;56376;53.356;-1.748;2022-12-24T06:35:44;98423.28;;;5.43;100.00
69257;BME280;56376;53.356;-1.748;2022-12-24T06:38:10;98431.91;;;5.44;100.00
69257;BME280;56376;53.356;-1.748;2022-12-24T06:40:37;98430.19;;;5.45;100.00
69257;BME280;56376;53.356;-1.748;2022-12-24T06:43:03;98424.13;;;5.44;100.00
69257;BME280;56376;53.356;-1.748;2022-12-24T06:45:28;98420.66;;;5.45;100.00
69257;BME280;56376;53.356;-1.748;2022-12-24T06:47:53;98426.72;;;5.44;100.00
69257;BME280;56376;53.356;-1.748;2022-12-24T06:50:19;98442.22;;;5.46;100.00
69257;BME280;56376;53.356;-1.748;2022-12-24T06:52:44;98456.94;;;5.45;100.00
69257;BME280;56376;53.356;-1.748;2022-12-24T06:55:09;98456.94;;;5.45;100.00
69257;BME280;56376;53.356;-1.748;2022-12-24T06:57:35;98454.44;;;5.42;100.00
69257;BME280;56376;53.356;-1.748;2022-12-24T07:00:00;98452.69;;;5.42;100.00
69257;BME280;56376;53.356;-1.748;2022-12-24T07:02:25;98460.50;;;5.41;100.00
69257;BME280;56376;53.356;-1.748;2022-12-24T07:04:51;98459.63;;;5.42;100.00
69257;BME280;56376;53.356;-1.748;2022-12-24T07:07:16;98458.59;;;5.46;100.00
69257;BME280;56376;53.356;-1.748;2022-12-24T07:09:42;98451.84;;;5.42;100.00
69257;BME280;56376;53.356;-1.748;2022-12-24T07:12:07;98461.44;;;5.38;100.00
69257;BME280;56376;53.356;-1.748;2022-12-24T07:14:33;98470.13;;;5.37;100.00
69257;BME280;56376;53.356;-1.748;2022-12-24T07:16:58;98470.97;;;5.38;100.00
69257;BME280;56376;53.356;-1.748;2022-12-24T07:19:24;98462.41;;;5.36;100.00
69257;BME280;56376;53.356;-1.748;2022-12-24T07:21:50;98465.06;;;5.34;100.00
69257;BME280;56376;53.356;-1.748;2022-12-24T07:24:19;98466.78;;;5.34;100.00
69257;BME280;56376;53.356;-1.748;2022-12-24T07:26:45;98463.44;;;5.30;100.00
69257;BME280;56376;53.356;-1.748;2022-12-24T07:29:11;98466.00;;;5.32;100.00
69257;BME280;56376;53.356;-1.748;2022-12-24T07:31:36;98479.81;;;5.31;100.00
69257;BME280;56376;53.356;-1.748;2022-12-24T07:34:01;98479.72;;;5.34;100.00
69257;BME280;56376;53.356;-1.748;2022-12-24T07:36:27;98493.56;;;5.33;100.00
69257;BME280;56376;53.356;-1.748;2022-12-24T07:38:53;98496.13;;;5.34;100.00
69257;BME280;56376;53.356;-1.748;2022-12-24T07:41:18;98498.78;;;5.31;100.00
69257;BME280;56376;53.356;-1.748;2022-12-24T07:43:44;98491.97;;;5.29;100.00
69257;BME280;56376;53.356;-1.748;2022-12-24T07:46:10;98503.22;;;5.28;100.00
69257;BME280;56376;53.356;-1.748;2022-12-24T07:48:35;98511.16;;;5.21;100.00
69257;BME280;56376;53.356;-1.748;2022-12-24T07:51:01;98519.84;;;5.20;100.00
69257;BME280;56376;53.356;-1.748;2022-12-24T07:53:27;98512.06;;;5.20;100.00
69257;BME280;56376;53.356;-1.748;2022-12-24T07:55:53;98522.44;;;5.20;100.00
69257;BME280;56376;53.356;-1.748;2022-12-24T07:58:30;98526.88;;;5.17;100.00
69257;BME280;56376;53.356;-1.748;2022-12-24T08:00:59;98520.91;;;5.13;100.00
69257;BME280;56376;53.356;-1.748;2022-12-24T08:03:26;98525.25;;;5.13;100.00
69257;BME280;56376;53.356;-1.748;2022-12-24T08:05:52;98521.94;;;5.09;100.00
69257;BME280;56376;53.356;-1.748;2022-12-24T08:08:17;98533.06;;;5.11;100.00
69257;BME280;56376;53.356;-1.748;2022-12-24T08:10:44;98531.28;;;5.13;100.00
69257;BME280;56376;53.356;-1.748;2022-12-24T08:13:10;98521.00;;;5.12;100.00
69257;BME280;56376;53.356;-1.748;2022-12-24T08:15:35;98531.28;;;5.13;100.00
69257;BME280;56376;53.356;-1.748;2022-12-24T08:18:00;98534.69;;;5.14;100.00
69257;BME280;56376;53.356;-1.748;2022-12-24T08:20:26;98525.28;;;5.11;100.00
69257;BME280;56376;53.356;-1.748;2022-12-24T08:22:52;98539.88;;;5.14;100.00
69257;BME280;56376;53.356;-1.748;2022-12-24T08:25:17;98547.72;;;5.12;100.00
69257;BME280;56376;53.356;-1.748;2022-12-24T08:27:43;98559.75;;;5.13;100.00
69257;BME280;56376;53.356;-1.748;2022-12-24T08:30:09;98552.78;;;5.15;100.00
69257;BME280;56376;53.356;-1.748;2022-12-24T08:32:34;98554.47;;;5.16;100.00
69257;BME280;56376;53.356;-1.748;2022-12-24T08:35:00;98554.47;;;5.16;100.00
69257;BME280;56376;53.356;-1.748;2022-12-24T08:37:26;98558.72;;;5.19;100.00
69257;BME280;56376;53.356;-1.748;2022-12-24T08:39:52;98568.19;;;5.20;100.00
69257;BME280;56376;53.356;-1.748;2022-12-24T08:42:17;98544.13;;;5.16;100.00
69257;BME280;56376;53.356;-1.748;2022-12-24T08:44:43;98563.81;;;5.22;100.00
69257;BME280;56376;53.356;-1.748;2022-12-24T08:47:08;98562.09;;;5.21;100.00
69257;BME280;56376;53.356;-1.748;2022-12-24T08:49:34;98555.25;;;5.20;100.00
69257;BME280;56376;53.356;-1.748;2022-12-24T08:51:59;98562.09;;;5.21;100.00
69257;BME280;56376;53.356;-1.748;2022-12-24T08:54:25;98564.75;;;5.19;100.00
69257;BME280;56376;53.356;-1.748;2022-12-24T08:56:50;98570.72;;;5.21;100.00
69257;BME280;56376;53.356;-1.748;2022-12-24T08:59:16;98573.31;;;5.21;100.00
69257;BME280;56376;53.356;-1.748;2022-12-24T09:01:41;98573.31;;;5.21;100.00
69257;BME280;56376;53.356;-1.748;2022-12-24T09:04:07;98572.44;;;5.23;100.00
69257;BME280;56376;53.356;-1.748;2022-12-24T09:06:34;98578.47;;;5.21;100.00
69257;BME280;56376;53.356;-1.748;2022-12-24T09:09:00;98574.22;;;5.20;100.00
69257;BME280;56376;53.356;-1.748;2022-12-24T09:11:25;98576.81;;;5.20;100.00
69257;BME280;56376;53.356;-1.748;2022-12-24T09:13:51;98569.06;;;5.19;100.00
69257;BME280;56376;53.356;-1.748;2022-12-24T09:16:16;98575.19;;;5.16;100.00
69257;BME280;56376;53.356;-1.748;2022-12-24T09:18:41;98585.53;;;5.16;100.00
69257;BME280;56376;53.356;-1.748;2022-12-24T09:21:12;98593.31;;;5.16;100.00
69257;BME280;56376;53.356;-1.748;2022-12-24T09:23:39;98598.47;;;5.16;100.00
69257;BME280;56376;53.356;-1.748;2022-12-24T09:26:13;98590.72;;;5.16;100.00
69257;BME280;56376;53.356;-1.748;2022-12-24T09:28:38;98588.91;;;5.20;100.00
69257;BME280;56376;53.356;-1.748;2022-12-24T09:31:04;98592.09;;;5.28;100.00
69257;BME280;56376;53.356;-1.748;2022-12-24T09:33:35;98595.50;;;5.30;100.00
69257;BME280;56376;53.356;-1.748;2022-12-24T09:36:01;98592.88;;;5.32;100.00
69257;BME280;56376;53.356;-1.748;2022-12-24T09:38:27;98600.66;;;5.32;100.00
69257;BME280;56376;53.356;-1.748;2022-12-24T09:40:54;98597.97;;;5.35;100.00
69257;BME280;56376;53.356;-1.748;2022-12-24T09:43:22;98598.69;;;5.38;100.00
69257;BME280;56376;53.356;-1.748;2022-12-24T09:48:28;98608.09;;;5.42;100.00
69257;BME280;56376;53.356;-1.748;2022-12-24T09:51:10;98596.78;;;5.45;100.00
69257;BME280;56376;53.356;-1.748;2022-12-24T09:53:49;98600.19;;;5.47;100.00
69257;BME280;56376;53.356;-1.748;2022-12-24T09:56:22;98591.50;;;5.48;100.00
69257;BME280;56376;53.356;-1.748;2022-12-24T09:58:51;98594.00;;;5.51;100.00
69257;BME280;56376;53.356;-1.748;2022-12-24T10:01:18;98602.53;;;5.55;100.00
69257;BME280;56376;53.356;-1.748;2022-12-24T10:03:44;98608.56;;;5.55;100.00
69257;BME280;56376;53.356;-1.748;2022-12-24T10:06:15;98601.59;;;5.57;100.00
69257;BME280;56376;53.356;-1.748;2022-12-24T10:22:02;98636.56;;;5.72;100.00
69257;BME280;56376;53.356;-1.748;2022-12-24T10:27:06;98641.50;;;5.80;100.00
69257;BME280;56376;53.356;-1.748;2022-12-24T10:29:36;98645.66;;;5.84;100.00
69257;BME280;56376;53.356;-1.748;2022-12-24T10:34:39;98647.13;;;5.94;100.00
69257;BME280;56376;53.356;-1.748;2022-12-24T10:37:06;98647.75;;;6.02;100.00
69257;BME280;56376;53.356;-1.748;2022-12-24T10:39:34;98644.13;;;6.06;100.00
69257;BME280;56376;53.356;-1.748;2022-12-24T10:42:00;98649.28;;;6.08;100.00
69257;BME280;56376;53.356;-1.748;2022-12-24T10:44:28;98646.63;;;6.10;100.00
69257;BME280;56376;53.356;-1.748;2022-12-24T10:46:54;98650.84;;;6.12;100.00
69257;BME280;56376;53.356;-1.748;2022-12-24T10:49:42;98646.34;;;6.19;100.00
69257;BME280;56376;53.356;-1.748;2022-12-24T10:52:15;98648.00;;;6.20;100.00
69257;BME280;56376;53.356;-1.748;2022-12-24T10:57:44;98651.34;;;6.25;100.00
69257;BME280;56376;53.356;-1.748;2022-12-24T11:00:21;98656.34;;;6.29;100.00
69257;BME280;56376;53.356;-1.748;2022-12-24T11:02:48;98651.81;;;6.36;100.00
69257;BME280;56376;53.356;-1.748;2022-12-24T11:05:32;98655.16;;;6.40;100.00
69257;BME280;56376;53.356;-1.748;2022-12-24T11:08:05;98665.44;;;6.43;100.00
69257;BME280;56376;53.356;-1.748;2022-12-24T11:10:34;98661.00;;;6.46;100.00
69257;BME280;56376;53.356;-1.748;2022-12-24T11:13:00;98655.69;;;6.49;100.00
69257;BME280;56376;53.356;-1.748;2022-12-24T11:15:31;98655.66;;;6.51;100.00
69257;BME280;56376;53.356;-1.748;2022-12-24T11:18:04;98651.34;;;6.50;100.00
69257;BME280;56376;53.356;-1.748;2022-12-24T11:20:32;98640.97;;;6.50;100.00
69257;BME280;56376;53.356;-1.748;2022-12-24T11:22:59;98634.94;;;6.49;100.00
69257;BME280;56376;53.356;-1.748;2022-12-24T11:25:31;98642.56;;;6.54;100.00
69257;BME280;56376;53.356;-1.748;2022-12-24T11:28:30;98639.94;;;6.56;100.00
69257;BME280;56376;53.356;-1.748;2022-12-24T11:31:07;98625.19;;;6.56;100.00
69257;BME280;56376;53.356;-1.748;2022-12-24T11:33:49;98626.81;;;6.60;100.00
69257;BME280;56376;53.356;-1.748;2022-12-24T11:36:18;98618.84;;;6.65;100.00
69257;BME280;56376;53.356;-1.748;2022-12-24T11:38:52;98618.78;;;6.66;100.00
69257;BME280;56376;53.356;-1.748;2022-12-24T11:41:18;98615.19;;;6.70;100.00
69257;BME280;56376;53.356;-1.748;2022-12-24T11:43:46;98613.38;;;6.72;100.00
69257;BME280;56376;53.356;-1.748;2022-12-24T11:46:16;98610.69;;;6.76;100.00
69257;BME280;56376;53.356;-1.748;2022-12-24T11:48:42;98606.34;;;6.76;100.00
69257;BME280;56376;53.356;-1.748;2022-12-24T11:51:28;98607.97;;;6.79;100.00
69257;BME280;56376;53.356;-1.748;2022-12-24T11:54:18;98611.41;;;6.79;100.00
69257;BME280;56376;53.356;-1.748;2022-12-24T11:56:54;98613.91;;;6.82;100.00
69257;BME280;56376;53.356;-1.748;2022-12-24T11:59:31;98607.81;;;6.83;100.00
69257;BME280;56376;53.356;-1.748;2022-12-24T12:02:25;98617.19;;;6.87;100.00
69257;BME280;56376;53.356;-1.748;2022-12-24T12:04:56;98612.91;;;6.86;100.00
69257;BME280;56376;53.356;-1.748;2022-12-24T12:07:28;98621.50;;;6.88;100.00
69257;BME280;56376;53.356;-1.748;2022-12-24T12:12:44;98628.94;;;6.98;100.00
69257;BME280;56376;53.356;-1.748;2022-12-24T12:17:50;98619.84;;;7.09;100.00
69257;BME280;56376;53.356;-1.748;2022-12-24T12:20:53;98616.00;;;7.20;100.00
69257;BME280;56376;53.356;-1.748;2022-12-24T12:23:44;98613.69;;;7.35;100.00
69257;BME280;56376;53.356;-1.748;2022-12-24T12:26:16;98617.63;;;7.46;100.00
69257;BME280;56376;53.356;-1.748;2022-12-24T12:32:01;98605.63;;;7.65;100.00
69257;BME280;56376;53.356;-1.748;2022-12-24T12:36:55;98610.88;;;7.86;100.00
69257;BME280;56376;53.356;-1.748;2022-12-24T12:39:22;98595.88;;;7.92;100.00
69257;BME280;56376;53.356;-1.748;2022-12-24T12:42:28;98591.28;;;7.99;100.00
69257;BME280;56376;53.356;-1.748;2022-12-24T12:58:38;98598.16;;;8.22;100.00
69257;BME280;56376;53.356;-1.748;2022-12-24T13:01:17;98601.59;;;8.22;100.00
69257;BME280;56376;53.356;-1.748;2022-12-24T13:07:20;98603.34;;;8.22;100.00
69257;BME280;56376;53.356;-1.748;2022-12-24T13:13:23;98613.75;;;8.22;100.00
69257;BME280;56376;53.356;-1.748;2022-12-24T13:15:59;98608.56;;;8.22;100.00
69257;BME280;56376;53.356;-1.748;2022-12-24T13:18:45;98623.19;;;8.24;100.00
69257;BME280;56376;53.356;-1.748;2022-12-24T13:21:18;98620.59;;;8.24;100.00
69257;BME280;56376;53.356;-1.748;2022-12-24T13:23:44;98619.78;;;8.22;100.00
69257;BME280;56376;53.356;-1.748;2022-12-24T13:26:11;98612.91;;;8.21;100.00
69257;BME280;56376;53.356;-1.748;2022-12-24T13:28:38;98619.84;;;8.21;100.00
69257;BME280;56376;53.356;-1.748;2022-12-24T13:36:11;98628.63;;;8.18;100.00
69257;BME280;56376;53.356;-1.748;2022-12-24T13:46:58;98607.03;;;8.16;100.00
69257;BME280;56376;53.356;-1.748;2022-12-24T13:49:43;98604.63;;;8.12;100.00
69257;BME280;56376;53.356;-1.748;2022-12-24T13:57:40;98608.25;;;8.08;100.00
69257;BME280;56376;53.356;-1.748;2022-12-24T14:03:28;98609.50;;;7.99;100.00
69257;BME280;56376;53.356;-1.748;2022-12-24T14:08:05;98608.84;;;7.94;100.00
69257;BME280;56376;53.356;-1.748;2022-12-24T14:10:42;98605.44;;;7.92;100.00
69257;BME280;56376;53.356;-1.748;2022-12-24T14:16:29;98593.22;;;7.94;100.00
69257;BME280;56376;53.356;-1.748;2022-12-24T14:19:09;98583.69;;;7.94;100.00
69257;BME280;56376;53.356;-1.748;2022-12-24T14:21:42;98583.69;;;7.94;100.00
69257;BME280;56376;53.356;-1.748;2022-12-24T14:24:15;98582.69;;;7.97;100.00
69257;BME280;56376;53.356;-1.748;2022-12-24T14:26:49;98580.09;;;7.97;100.00
69257;BME280;56376;53.356;-1.748;2022-12-24T14:31:51;98584.34;;;7.99;100.00
69257;BME280;56376;53.356;-1.748;2022-12-24T14:34:17;98576.66;;;7.96;100.00
69257;BME280;56376;53.356;-1.748;2022-12-24T14:36:43;98575.91;;;7.93;100.00
69257;BME280;56376;53.356;-1.748;2022-12-24T14:39:20;98575.03;;;7.94;100.00
69257;BME280;56376;53.356;-1.748;2022-12-24T14:44:58;98571.69;;;7.90;100.00
69257;BME280;56376;53.356;-1.748;2022-12-24T14:47:36;98578.69;;;7.88;100.00
69257;BME280;56376;53.356;-1.748;2022-12-24T14:50:32;98589.09;;;7.88;100.00
69257;BME280;56376;53.356;-1.748;2022-12-24T14:55:50;98563.38;;;7.82;100.00
69257;BME280;56376;53.356;-1.748;2022-12-24T14:58:42;98570.31;;;7.82;100.00
69257;BME280;56376;53.356;-1.748;2022-12-24T15:01:23;98565.31;;;7.77;100.00
69257;BME280;56376;53.356;-1.748;2022-12-24T15:06:24;98561.22;;;7.71;100.00